Time;durP1;ratioP1;P1;durP2;ratioP2;P2;SDS_P1;SDS_P2;PMS_P1;PMS_P2;Temp;Humidity;BMP_temperature;BMP_pressure;BME280_temperature;BME280_humidity;BME280_pressure;Samples;Min_cycle;Max_cycle;Signal;HPM_P1;HPM_P2
2023/02/13 00:01:56;;;;;;;7.93;4.85;;;28.10;82.90;;;;;;5071918;28;20069;-47
2023/02/13 00:04:22;;;;;;;11.05;4.38;;;28.10;82.80;;;;;;5084215;28;20024;-48
2023/02/13 00:06:49;;;;;;;9.65;4.47;;;28.10;82.90;;;;;;5083924;28;20040;-47
2023/02/13 00:09:16;;;;;;;9.60;4.90;;;28.10;83.00;;;;;;5084289;28;20032;-49
2023/02/13 00:11:42;;;;;;;16.20;5.35;;;28.00;82.90;;;;;;5083151;28;20121;-52
2023/02/13 00:14:09;;;;;;;7.10;4.57;;;28.00;83.10;;;;;;5073231;28;20021;-52
2023/02/13 00:16:35;;;;;;;9.20;4.60;;;28.00;83.10;;;;;;5075205;28;20024;-48
2023/02/13 00:19:02;;;;;;;8.40;4.28;;;28.00;83.20;;;;;;5083969;28;20039;-46
2023/02/13 00:21:30;;;;;;;7.60;3.58;;;28.00;83.30;;;;;;5083830;28;20013;-47
2023/02/13 00:23:56;;;;;;;8.13;4.47;;;28.00;83.20;;;;;;5081008;28;20100;-49
2023/02/13 00:26:23;;;;;;;9.25;5.15;;;27.90;83.30;;;;;;5083353;28;20023;-48
2023/02/13 00:28:49;;;;;;;7.95;4.38;;;27.90;83.20;;;;;;5082115;28;20126;-46
2023/02/13 00:31:19;;;;;;;9.43;4.82;;;27.90;83.30;;;;;;5067339;28;20037;-50
2023/02/13 00:33:47;;;;;;;7.50;4.47;;;27.90;83.40;;;;;;5073778;28;20300;-44
2023/02/13 00:36:16;;;;;;;11.35;4.47;;;27.80;83.10;;;;;;5083538;28;20100;-49
2023/02/13 00:38:43;;;;;;;11.88;4.43;;;27.80;83.10;;;;;;5083743;28;20021;-49
2023/02/13 00:41:11;;;;;;;8.80;3.88;;;27.80;83.00;;;;;;5083379;28;20027;-46
2023/02/13 00:43:38;;;;;;;8.75;3.97;;;27.80;83.00;;;;;;5083670;28;20101;-49
2023/02/13 00:46:07;;;;;;;6.15;3.80;;;27.80;83.20;;;;;;5083577;28;20040;-52
2023/02/13 00:48:34;;;;;;;6.85;4.00;;;27.80;83.50;;;;;;5083610;28;20036;-51
2023/02/13 00:51:02;;;;;;;14.07;4.30;;;27.80;83.40;;;;;;5083589;28;20032;-50
2023/02/13 00:53:28;;;;;;;11.45;4.43;;;27.70;83.30;;;;;;5076684;28;20204;-48
2023/02/13 00:55:55;;;;;;;14.30;4.47;;;27.70;83.20;;;;;;5065374;28;20032;-64
2023/02/13 00:58:25;;;;;;;10.30;4.80;;;27.70;83.20;;;;;;5074344;28;20052;-60
2023/02/13 01:00:53;;;;;;;7.95;4.45;;;27.70;83.50;;;;;;5064060;28;20037;-62
2023/02/13 01:03:21;;;;;;;8.95;4.70;;;27.70;82.70;;;;;;5063259;28;21634;-46
2023/02/13 01:05:48;;;;;;;5.28;4.10;;;27.70;82.80;;;;;;5072260;28;20097;-48
2023/02/13 01:08:16;;;;;;;9.30;4.68;;;27.70;82.80;;;;;;5081026;28;20040;-47
2023/02/13 01:10:46;;;;;;;7.53;4.10;;;27.60;82.80;;;;;;5082756;28;20263;-51
2023/02/13 01:13:14;;;;;;;8.75;4.43;;;27.60;82.80;;;;;;5083186;28;20028;-45
2023/02/13 01:15:41;;;;;;;8.68;4.32;;;27.60;83.10;;;;;;5083403;28;20320;-52
2023/02/13 01:18:08;;;;;;;6.40;4.22;;;27.60;82.40;;;;;;5081885;28;20017;-45
2023/02/13 01:20:35;;;;;;;8.57;4.80;;;27.60;82.30;;;;;;5082037;28;20032;-46
2023/02/13 01:23:01;;;;;;;10.15;5.30;;;27.60;82.10;;;;;;5082965;28;20052;-47
2023/02/13 01:25:28;;;;;;;7.90;4.70;;;27.60;82.00;;;;;;5082191;28;20205;-48
2023/02/13 01:27:54;;;;;;;7.47;4.30;;;27.60;81.60;;;;;;5083250;28;20028;-48
2023/02/13 01:30:21;;;;;;;7.70;4.68;;;27.60;81.50;;;;;;5083700;28;20036;-44
2023/02/13 01:32:48;;;;;;;14.48;5.40;;;27.60;81.40;;;;;;5083053;28;20066;-49
2023/02/13 01:35:15;;;;;;;10.95;5.22;;;27.60;81.40;;;;;;5082704;28;20104;-49
2023/02/13 01:37:42;;;;;;;8.65;5.20;;;27.60;81.20;;;;;;5083857;28;20358;-49
2023/02/13 01:40:12;;;;;;;11.85;5.30;;;27.60;81.10;;;;;;5087115;28;20035;-50
2023/02/13 01:42:39;;;;;;;10.85;4.60;;;27.60;80.90;;;;;;5086630;28;20025;-46
2023/02/13 01:45:17;;;;;;;10.85;5.20;;;27.60;80.70;;;;;;5087095;28;20043;-51
2023/02/13 01:48:08;;;;;;;8.40;4.82;;;27.60;80.80;;;;;;5085122;28;20053;-48
2023/02/13 01:50:40;;;;;;;9.52;4.70;;;27.60;81.00;;;;;;5077569;28;20077;-47
2023/02/13 01:53:10;;;;;;;7.10;4.50;;;27.50;80.90;;;;;;5085927;28;20040;-51
2023/02/13 01:56:10;;;;;;;10.32;4.47;;;27.50;80.90;;;;;;5086410;28;20044;-49
2023/02/13 01:58:39;;;;;;;11.35;4.88;;;27.50;81.30;;;;;;5086065;28;20213;-48
2023/02/13 02:01:07;;;;;;;7.18;4.40;;;27.50;80.60;;;;;;5086254;28;20083;-48
2023/02/13 02:03:50;;;;;;;9.88;4.50;;;27.50;80.70;;;;;;5086078;28;20040;-49
2023/02/13 02:06:29;;;;;;;5.07;4.40;;;27.50;80.70;;;;;;5077235;28;20111;-53
2023/02/13 02:09:01;;;;;;;7.30;4.63;;;27.50;80.70;;;;;;5066244;28;20036;-51
2023/02/13 02:11:41;;;;;;;8.73;4.50;;;27.50;80.60;;;;;;5066016;28;20033;-52
2023/02/13 02:14:08;;;;;;;7.50;4.50;;;27.50;80.40;;;;;;5077550;28;20031;-55
2023/02/13 02:16:34;;;;;;;7.15;4.93;;;27.50;80.40;;;;;;5066034;28;20039;-56
2023/02/13 02:19:10;;;;;;;9.50;5.05;;;27.40;80.30;;;;;;5066108;28;20032;-51
2023/02/13 02:21:50;;;;;;;8.80;5.10;;;27.40;80.20;;;;;;5065891;28;20029;-49
2023/02/13 02:24:53;;;;;;;11.00;5.30;;;27.40;80.20;;;;;;5080337;28;20036;-54
2023/02/13 02:27:41;;;;;;;7.32;4.95;;;27.40;80.00;;;;;;5085765;28;20037;-51
2023/02/13 02:31:12;;;;;;;8.68;5.00;;;27.40;79.90;;;;;;5086227;28;20043;-50
2023/02/13 02:33:50;;;;;;;6.68;4.82;;;27.40;79.80;;;;;;4982229;28;20042;-51
2023/02/13 02:36:40;;;;;;;31.92;7.45;;;27.30;80.00;;;;;;4998943;28;20253;-55
2023/02/13 02:39:22;;;;;;;17.00;5.88;;;27.40;80.20;;;;;;5077553;28;20068;-54
2023/02/13 02:42:42;;;;;;;12.60;5.47;;;27.40;80.10;;;;;;5085783;28;20216;-55
2023/02/13 02:45:08;;;;;;;10.95;5.38;;;27.40;80.00;;;;;;5037706;28;20313;-51
2023/02/13 02:51:16;;;;;;;10.85;5.40;;;27.40;79.80;;;;;;5073302;28;20101;-48
2023/02/13 02:57:16;;;;;;;9.63;5.53;;;27.40;79.70;;;;;;4975402;28;20279;-46
2023/02/13 03:13:17;;;;;;;13.68;6.10;;;27.40;79.10;;;;;;5084969;28;20028;-54
2023/02/13 03:13:49;;;;;;;12.50;5.55;;;27.40;79.10;;;;;;5064922;28;20036;-49
2023/02/13 03:22:35;;;;;;;10.23;5.60;;;27.30;79.10;;;;;;5064375;28;20120;-48
2023/02/13 03:25:29;;;;;;;12.23;5.55;;;27.30;79.20;;;;;;5065240;28;20036;-47
2023/02/13 03:31:17;;;;;;;7.80;5.00;;;27.30;78.80;;;;;;5084090;28;20113;-50
2023/02/13 03:34:02;;;;;;;8.00;4.80;;;27.30;78.70;;;;;;5084428;28;20232;-52
2023/02/13 03:39:49;;;;;;;12.43;4.70;;;27.30;78.60;;;;;;5076556;28;20116;-56
2023/02/13 03:42:47;;;;;;;6.88;4.80;;;27.30;78.60;;;;;;5082924;28;20024;-47
2023/02/13 03:45:59;;;;;;;6.70;4.95;;;27.30;78.70;;;;;;5084680;28;20355;-47
2023/02/13 03:51:32;;;;;;;8.93;4.60;;;27.30;78.70;;;;;;5064365;28;20444;-48
2023/02/13 03:54:04;;;;;;;6.60;4.75;;;27.30;78.60;;;;;;5064323;28;20040;-51
2023/02/13 03:59:29;;;;;;;6.38;4.72;;;27.30;78.60;;;;;;5084314;28;20074;-46
2023/02/13 04:02:11;;;;;;;6.78;4.68;;;27.30;78.60;;;;;;5083942;28;20070;-49
2023/02/13 04:04:53;;;;;;;7.40;4.68;;;27.30;78.60;;;;;;5084434;28;20086;-49
2023/02/13 04:07:31;;;;;;;6.95;4.80;;;27.30;78.70;;;;;;5084147;28;20028;-52
2023/02/13 04:10:07;;;;;;;5.40;4.63;;;27.30;78.70;;;;;;5084567;28;20078;-48
2023/02/13 04:13:03;;;;;;;7.28;4.60;;;27.30;78.70;;;;;;5084222;28;20052;-49
2023/02/13 04:15:49;;;;;;;8.70;4.93;;;27.30;78.70;;;;;;5084119;28;20136;-55
2023/02/13 04:18:29;;;;;;;6.20;4.55;;;27.30;78.60;;;;;;5083814;28;20035;-54
2023/02/13 04:20:56;;;;;;;6.85;4.80;;;27.30;78.60;;;;;;5083837;28;20024;-49
2023/02/13 04:23:22;;;;;;;8.60;5.05;;;27.30;78.70;;;;;;5083896;28;20305;-49
2023/02/13 04:25:52;;;;;;;7.05;4.78;;;27.30;78.60;;;;;;5084150;28;20206;-45
2023/02/13 04:28:19;;;;;;;7.10;4.85;;;27.30;78.60;;;;;;5083972;28;20028;-48
2023/02/13 04:30:45;;;;;;;5.78;4.93;;;27.30;78.80;;;;;;5083686;28;20074;-55
2023/02/13 04:33:12;;;;;;;6.40;4.65;;;27.30;78.70;;;;;;5083678;28;20024;-47
2023/02/13 04:35:38;;;;;;;6.97;4.80;;;27.20;78.50;;;;;;5083756;28;20028;-56
2023/02/13 04:38:05;;;;;;;5.85;4.70;;;27.20;78.50;;;;;;5083613;28;20016;-46
2023/02/13 04:40:32;;;;;;;8.68;4.90;;;27.20;78.60;;;;;;5083837;28;20247;-46
2023/02/13 04:43:00;;;;;;;6.28;5.25;;;27.20;78.50;;;;;;5083767;28;20070;-48
2023/02/13 04:45:26;;;;;;;6.78;4.60;;;27.20;78.60;;;;;;5083492;28;20032;-48
2023/02/13 04:47:54;;;;;;;6.80;5.50;;;27.20;78.40;;;;;;5083502;28;20240;-47
2023/02/13 04:50:21;;;;;;;8.65;5.45;;;27.20;78.50;;;;;;5084163;28;20130;-54
2023/02/13 04:52:54;;;;;;;6.40;4.80;;;27.20;78.50;;;;;;5083489;28;20051;-49
2023/02/13 04:55:24;;;;;;;6.72;5.28;;;27.20;78.50;;;;;;5084157;28;20067;-46
2023/02/13 04:57:55;;;;;;;6.28;4.57;;;27.20;78.50;;;;;;5083719;28;20024;-50
2023/02/13 05:00:23;;;;;;;7.93;5.40;;;27.20;78.40;;;;;;5083378;28;20025;-52
2023/02/13 05:02:50;;;;;;;6.85;4.80;;;27.20;78.40;;;;;;5083659;28;20017;-56
2023/02/13 05:05:18;;;;;;;5.68;4.53;;;27.20;78.40;;;;;;5083465;28;20244;-48
2023/02/13 05:07:45;;;;;;;7.55;5.25;;;27.20;78.30;;;;;;5083277;28;20070;-52
2023/02/13 05:10:12;;;;;;;8.60;4.50;;;27.20;78.40;;;;;;5083923;28;20040;-47
2023/02/13 05:12:39;;;;;;;8.63;4.85;;;27.20;78.40;;;;;;5084427;28;20095;-52
2023/02/13 05:15:06;;;;;;;6.50;4.85;;;27.20;78.30;;;;;;5087522;28;20324;-49
2023/02/13 05:17:32;;;;;;;6.28;4.90;;;27.20;78.30;;;;;;5087099;28;20371;-50
2023/02/13 05:19:59;;;;;;;6.20;4.78;;;27.20;78.30;;;;;;5087576;28;20047;-49
2023/02/13 05:25:10;;;;;;;8.00;4.60;;;27.20;78.30;;;;;;5087516;28;20032;-52
2023/02/13 05:27:37;;;;;;;7.45;4.85;;;27.20;78.20;;;;;;5086908;28;20070;-53
2023/02/13 05:30:04;;;;;;;7.15;4.70;;;27.20;78.30;;;;;;5087399;28;20058;-55
2023/02/13 05:32:31;;;;;;;10.68;5.20;;;27.20;78.30;;;;;;5086760;28;20043;-52
2023/02/13 05:34:57;;;;;;;8.50;4.80;;;27.20;78.10;;;;;;5087069;28;20338;-51
2023/02/13 05:37:24;;;;;;;8.25;4.82;;;27.20;78.10;;;;;;5087053;28;20062;-47
2023/02/13 05:39:50;;;;;;;8.05;4.60;;;27.20;78.10;;;;;;5087326;28;20036;-48
2023/02/13 05:42:17;;;;;;;5.60;4.60;;;27.20;78.30;;;;;;5086767;28;20031;-50
2023/02/13 05:44:43;;;;;;;6.22;4.45;;;27.20;78.40;;;;;;5087102;28;20031;-47
2023/02/13 05:47:10;;;;;;;7.82;5.00;;;27.20;78.40;;;;;;5086531;28;20063;-52
2023/02/13 05:49:36;;;;;;;9.23;4.70;;;27.20;78.50;;;;;;5086926;28;20043;-49
2023/02/13 05:52:03;;;;;;;6.97;4.63;;;27.20;78.60;;;;;;5086644;28;20040;-57
2023/02/13 05:54:32;;;;;;;5.28;4.72;;;27.20;78.70;;;;;;5086839;28;20064;-46
2023/02/13 05:56:58;;;;;;;6.70;4.72;;;27.20;78.70;;;;;;5086568;28;20017;-47
2023/02/13 05:59:25;;;;;;;6.80;4.93;;;27.10;78.70;;;;;;5086369;28;20346;-53
2023/02/13 06:01:52;;;;;;;6.80;4.70;;;27.10;78.90;;;;;;5086597;28;20054;-46
2023/02/13 06:04:19;;;;;;;6.57;4.68;;;27.10;78.90;;;;;;5086213;28;20221;-49
2023/02/13 06:06:45;;;;;;;9.88;5.13;;;27.10;78.90;;;;;;5086241;28;20040;-49
2023/02/13 06:09:12;;;;;;;7.72;5.07;;;27.10;79.40;;;;;;5086677;28;20102;-53
2023/02/13 06:11:38;;;;;;;8.68;4.95;;;27.10;78.80;;;;;;5086257;28;20232;-48
2023/02/13 06:14:05;;;;;;;7.47;4.82;;;27.10;78.80;;;;;;5086282;28;20036;-52
2023/02/13 06:16:32;;;;;;;7.80;5.10;;;27.10;78.70;;;;;;5086209;28;20217;-53
2023/02/13 06:18:58;;;;;;;8.75;4.80;;;27.10;78.80;;;;;;5086238;28;20033;-47
2023/02/13 06:21:25;;;;;;;6.65;4.55;;;27.10;78.90;;;;;;5086304;28;20020;-46
2023/02/13 06:23:51;;;;;;;6.35;5.22;;;27.10;79.10;;;;;;5077600;28;20029;-48
2023/02/13 06:26:18;;;;;;;6.53;4.93;;;27.10;79.10;;;;;;5066007;28;20035;-47
2023/02/13 06:28:45;;;;;;;9.40;5.05;;;27.10;79.20;;;;;;5065739;28;20040;-50
2023/02/13 06:31:11;;;;;;;4.95;4.45;;;27.10;79.20;;;;;;5065824;28;20031;-52
2023/02/13 06:33:38;;;;;;;4.85;4.45;;;27.10;79.30;;;;;;5065804;28;20066;-46
2023/02/13 06:36:05;;;;;;;6.90;5.03;;;27.10;79.30;;;;;;5065693;28;20036;-50
2023/02/13 06:38:31;;;;;;;11.20;5.03;;;27.10;79.60;;;;;;5065817;28;20041;-49
2023/02/13 06:41:01;;;;;;;8.80;4.72;;;27.00;79.80;;;;;;5065763;28;20029;-48
2023/02/13 06:43:28;;;;;;;8.40;4.88;;;27.00;79.90;;;;;;5065646;28;20298;-55
2023/02/13 06:45:55;;;;;;;6.38;4.88;;;27.00;80.10;;;;;;5065332;28;20024;-53
2023/02/13 06:48:22;;;;;;;11.27;5.13;;;27.00;80.10;;;;;;5065461;28;20036;-56
2023/02/13 06:50:50;;;;;;;19.80;4.82;;;27.00;80.10;;;;;;5065355;28;20049;-55
2023/02/13 06:53:23;;;;;;;14.00;4.63;;;27.00;80.20;;;;;;5065375;28;20025;-48
2023/02/13 06:55:52;;;;;;;21.23;5.35;;;27.00;80.20;;;;;;5065319;28;20021;-49
2023/02/13 06:58:20;;;;;;;8.68;5.35;;;27.00;80.30;;;;;;5065480;28;20063;-50
2023/02/13 07:00:46;;;;;;;15.43;5.07;;;27.00;80.40;;;;;;5065186;28;20088;-49
2023/02/13 07:03:13;;;;;;;7.57;4.88;;;27.00;80.70;;;;;;5065324;28;20135;-55
2023/02/13 07:05:41;;;;;;;8.65;5.50;;;27.00;80.70;;;;;;5065083;28;20084;-49
2023/02/13 07:08:11;;;;;;;9.57;4.80;;;27.00;80.60;;;;;;5065320;28;20048;-48
2023/02/13 07:10:42;;;;;;;7.47;4.85;;;27.00;80.60;;;;;;5065033;28;20029;-48
2023/02/13 07:13:09;;;;;;;7.25;5.18;;;27.00;80.60;;;;;;5064904;28;20025;-49
2023/02/13 07:15:37;;;;;;;6.47;5.25;;;27.00;80.70;;;;;;5065026;28;20265;-46
2023/02/13 07:18:04;;;;;;;6.68;4.75;;;27.00;80.70;;;;;;5064633;28;20032;-49
2023/02/13 07:20:31;;;;;;;7.05;5.25;;;27.00;80.60;;;;;;5065003;28;20028;-54
2023/02/13 07:23:03;;;;;;;7.82;4.60;;;27.00;80.70;;;;;;5064923;28;20028;-46
2023/02/13 07:25:30;;;;;;;8.10;4.90;;;27.00;80.60;;;;;;5064833;28;20029;-51
2023/02/13 07:28:04;;;;;;;8.23;5.00;;;26.90;80.50;;;;;;5064817;28;20067;-49
2023/02/13 07:30:32;;;;;;;8.27;4.95;;;26.90;80.50;;;;;;5064682;28;20321;-54
2023/02/13 07:33:01;;;;;;;5.80;5.03;;;27.00;80.60;;;;;;5064405;28;20016;-51
2023/02/13 07:35:27;;;;;;;6.60;4.70;;;26.90;80.40;;;;;;5064130;28;20108;-51
2023/02/13 07:37:55;;;;;;;8.85;4.80;;;26.90;80.40;;;;;;5064509;28;20270;-47
2023/02/13 07:40:22;;;;;;;8.23;5.40;;;26.90;80.50;;;;;;5064851;28;20024;-50
2023/02/13 07:42:48;;;;;;;7.55;4.80;;;26.90;80.60;;;;;;5064480;28;20040;-47
2023/02/13 07:45:15;;;;;;;7.95;4.93;;;26.90;80.50;;;;;;5065047;28;20036;-49
2023/02/13 07:47:42;;;;;;;9.02;4.82;;;26.90;80.50;;;;;;5064434;28;20268;-49
2023/02/13 07:50:09;;;;;;;6.63;5.15;;;26.90;80.60;;;;;;5064867;28;20206;-49
2023/02/13 07:52:38;;;;;;;9.35;5.20;;;26.90;80.60;;;;;;5064329;28;20029;-45
2023/02/13 07:55:06;;;;;;;8.05;5.28;;;26.90;80.60;;;;;;5064661;28;20037;-48
2023/02/13 07:57:33;;;;;;;5.68;5.00;;;26.90;80.80;;;;;;5064356;28;20057;-50
2023/02/13 08:00:00;;;;;;;5.95;4.90;;;26.90;80.80;;;;;;5064106;28;20040;-54
2023/02/13 08:02:26;;;;;;;6.93;5.07;;;26.90;80.80;;;;;;5064367;28;20062;-54
2023/02/13 08:04:53;;;;;;;7.30;5.30;;;26.90;80.80;;;;;;5064885;28;20072;-48
2023/02/13 08:07:19;;;;;;;8.70;4.97;;;26.90;80.70;;;;;;5064116;28;20032;-48
2023/02/13 08:12:33;;;;;;;7.10;5.00;;;26.80;80.90;;;;;;5064192;28;20228;-47
2023/02/13 08:15:00;;;;;;;9.65;5.18;;;26.80;81.10;;;;;;5064169;28;20366;-49
2023/02/13 08:17:26;;;;;;;7.93;5.15;;;26.80;81.20;;;;;;5063927;28;20343;-48
2023/02/13 08:19:53;;;;;;;6.28;4.97;;;26.80;81.30;;;;;;5064319;28;20021;-46
2023/02/13 08:22:20;;;;;;;8.25;5.15;;;26.80;81.40;;;;;;5063803;28;20036;-47
2023/02/13 08:24:46;;;;;;;7.90;5.07;;;26.80;81.50;;;;;;5064302;28;20082;-52
2023/02/13 08:27:14;;;;;;;5.78;5.20;;;26.80;81.70;;;;;;5064168;28;20044;-48
2023/02/13 08:29:41;;;;;;;8.27;5.05;;;26.80;81.80;;;;;;5064047;28;20059;-49
2023/02/13 08:32:08;;;;;;;7.30;5.28;;;26.80;81.80;;;;;;5063887;28;20032;-48
2023/02/13 08:34:34;;;;;;;8.75;5.43;;;26.80;82.00;;;;;;5063811;28;20340;-46
2023/02/13 08:37:02;;;;;;;8.27;5.80;;;26.80;82.00;;;;;;5063630;28;20328;-49
2023/02/13 08:39:28;;;;;;;10.45;5.30;;;26.80;82.10;;;;;;5063670;28;20078;-50
2023/02/13 08:41:55;;;;;;;7.13;5.25;;;26.80;82.30;;;;;;5064086;28;20065;-51
2023/02/13 08:44:22;;;;;;;7.68;5.22;;;26.80;82.40;;;;;;5063790;28;20033;-49
2023/02/13 08:46:48;;;;;;;7.90;5.45;;;26.80;82.30;;;;;;5065029;28;20052;-52
2023/02/13 08:49:15;;;;;;;10.75;5.47;;;26.70;82.20;;;;;;5068115;28;20029;-54
2023/02/13 08:51:41;;;;;;;8.82;5.40;;;26.80;82.20;;;;;;5067897;28;20055;-48
2023/02/13 08:54:08;;;;;;;7.10;5.43;;;26.80;82.10;;;;;;5067897;28;20305;-47
2023/02/13 08:56:34;;;;;;;7.50;5.05;;;26.80;82.20;;;;;;5066474;28;20020;-50
2023/02/13 08:59:01;;;;;;;5.78;4.57;;;26.80;82.10;;;;;;5068015;28;20029;-51
2023/02/13 09:01:27;;;;;;;7.15;5.13;;;26.70;82.10;;;;;;5067926;28;20059;-55
2023/02/13 09:03:55;;;;;;;9.23;5.32;;;26.80;82.00;;;;;;5067769;28;20100;-55
2023/02/13 09:06:21;;;;;;;6.47;5.28;;;26.80;82.10;;;;;;5067380;28;20029;-48
2023/02/13 09:08:48;;;;;;;5.68;5.07;;;26.80;82.10;;;;;;5067351;28;20033;-52
2023/02/13 09:11:14;;;;;;;6.80;4.90;;;26.80;82.20;;;;;;5067636;28;20079;-46
2023/02/13 09:13:41;;;;;;;11.25;5.15;;;26.70;82.10;;;;;;5067390;28;20035;-48
2023/02/13 09:16:09;;;;;;;7.22;4.95;;;26.70;82.00;;;;;;5067060;28;20028;-54
2023/02/13 09:18:36;;;;;;;7.45;4.95;;;26.70;82.10;;;;;;5067250;28;20025;-51
2023/02/13 09:21:05;;;;;;;8.40;5.57;;;26.70;82.20;;;;;;5067148;28;20025;-49
2023/02/13 09:23:34;;;;;;;8.43;5.82;;;26.70;82.30;;;;;;5067145;28;20161;-49
2023/02/13 09:26:02;;;;;;;8.43;5.30;;;26.70;82.50;;;;;;5067159;28;20032;-47
2023/02/13 09:28:33;;;;;;;7.85;5.13;;;26.70;82.60;;;;;;5067201;28;20032;-52
2023/02/13 09:31:11;;;;;;;8.50;5.37;;;26.70;82.90;;;;;;5067112;28;20060;-51
2023/02/13 09:33:38;;;;;;;7.05;5.10;;;26.70;83.00;;;;;;5066974;28;20037;-50
2023/02/13 09:36:07;;;;;;;8.40;5.35;;;26.70;82.90;;;;;;5066813;28;20340;-48
2023/02/13 09:38:34;;;;;;;7.00;5.53;;;26.70;82.80;;;;;;5066916;28;20025;-49
2023/02/13 09:41:08;;;;;;;6.93;5.18;;;26.70;82.70;;;;;;5066751;28;20318;-47
2023/02/13 09:43:52;;;;;;;8.63;5.40;;;26.70;82.80;;;;;;5067038;28;20044;-49
2023/02/13 09:46:39;;;;;;;8.30;5.57;;;26.70;83.20;;;;;;5066496;28;20093;-51
2023/02/13 09:49:18;;;;;;;8.55;5.40;;;26.60;83.10;;;;;;5066821;28;20043;-49
2023/02/13 09:51:51;;;;;;;6.88;5.25;;;26.60;83.10;;;;;;5066380;28;20036;-49
2023/02/13 09:54:18;;;;;;;;;;;26.60;83.20;;;;;;5067082;28;20083;-53
2023/02/13 09:56:53;;;;;;;6.95;5.50;;;26.60;83.40;;;;;;5066494;28;19946;-46
2023/02/13 09:59:44;;;;;;;8.27;5.50;;;26.60;83.40;;;;;;5066187;28;20424;-47
2023/02/13 10:02:34;;;;;;;9.10;5.50;;;26.60;83.40;;;;;;5066595;28;20025;-53
2023/02/13 10:05:27;;;;;;;7.97;5.43;;;26.60;83.10;;;;;;5066261;28;20099;-47
2023/02/13 10:08:08;;;;;;;8.07;5.47;;;26.60;82.70;;;;;;5066479;28;20055;-48
2023/02/13 10:10:51;;;;;;;8.38;4.80;;;26.60;82.30;;;;;;5066254;28;20139;-48
2023/02/13 10:13:49;;;;;;;6.60;4.72;;;26.60;82.10;;;;;;5066042;28;20029;-50
2023/02/13 10:16:31;;;;;;;7.50;4.95;;;26.70;82.00;;;;;;5066143;28;20468;-49
2023/02/13 10:19:16;;;;;;;8.40;5.07;;;26.70;82.00;;;;;;5075812;28;20241;-53
2023/02/13 10:22:11;;;;;;;6.22;4.53;;;26.60;81.90;;;;;;5086211;28;20024;-48
2023/02/13 10:24:51;;;;;;;5.30;4.78;;;26.70;81.80;;;;;;5086509;28;20056;-53
2023/02/13 10:27:28;;;;;;;8.60;4.65;;;26.70;81.70;;;;;;5085948;28;20040;-46
2023/02/13 10:30:04;;;;;;;6.72;5.10;;;26.70;81.70;;;;;;5083671;28;20033;-48
2023/02/13 10:32:48;;;;;;;9.15;4.60;;;26.70;81.70;;;;;;5065991;28;20025;-52
2023/02/13 10:35:18;;;;;;;8.63;4.72;;;26.70;81.60;;;;;;5066143;28;20265;-50
2023/02/13 10:37:51;;;;;;;6.20;4.13;;;26.70;81.60;;;;;;5065784;28;20024;-49
2023/02/13 10:40:18;;;;;;;8.15;4.38;;;26.70;81.70;;;;;;5066118;28;20033;-46
2023/02/13 10:42:52;;;;;;;7.93;4.50;;;26.70;81.90;;;;;;5065709;28;20088;-47
2023/02/13 10:45:48;;;;;;;6.72;4.50;;;26.70;81.90;;;;;;5066001;28;20328;-51
2023/02/13 10:48:42;;;;;;;11.27;5.05;;;26.70;82.10;;;;;;5062548;28;20107;-47
2023/02/13 10:51:13;;;;;;;7.28;4.28;;;26.70;82.00;;;;;;5065484;28;20225;-48
2023/02/13 10:54:04;;;;;;;7.88;4.28;;;26.70;82.00;;;;;;5065483;28;20045;-49
2023/02/13 10:56:40;;;;;;;7.23;4.37;;;26.70;82.00;;;;;;5072135;28;20256;-48
2023/02/13 10:59:27;;;;;;;10.02;4.22;;;26.70;82.10;;;;;;5065384;28;20032;-54
2023/02/13 11:02:16;;;;;;;13.35;5.28;;;26.60;81.90;;;;;;5073472;28;20035;-49
2023/02/13 11:04:43;;;;;;;11.73;4.47;;;26.60;82.20;;;;;;5085602;28;20040;-52
2023/02/13 11:07:17;;;;;;;9.38;4.97;;;26.60;82.40;;;;;;5083244;28;20028;-49
2023/02/13 11:09:47;;;;;;;10.20;4.93;;;26.60;82.50;;;;;;5083666;28;20038;-49
2023/02/13 11:12:26;;;;;;;9.55;5.20;;;26.70;82.40;;;;;;5084044;28;20032;-55
2023/02/13 11:14:55;;;;;;;9.60;5.03;;;26.70;82.40;;;;;;5085255;28;20086;-51
2023/02/13 11:17:23;;;;;;;11.15;5.55;;;26.70;82.60;;;;;;5085133;28;20024;-48
2023/02/13 11:19:54;;;;;;;18.88;5.57;;;26.70;83.10;;;;;;5083118;28;20374;-53
2023/02/13 11:22:36;;;;;;;18.63;5.50;;;26.70;83.50;;;;;;5082985;28;20019;-51
2023/02/13 11:25:07;;;;;;;16.33;5.47;;;26.70;83.80;;;;;;5082855;28;20028;-56
2023/02/13 11:27:37;;;;;;;17.95;6.25;;;26.50;84.00;;;;;;5082896;28;20035;-50
2023/02/13 11:30:31;;;;;;;15.27;6.05;;;26.40;84.40;;;;;;5082493;28;20239;-47
2023/02/13 11:33:06;;;;;;;12.38;6.07;;;26.50;84.20;;;;;;5081659;28;20089;-47
2023/02/13 11:35:36;;;;;;;16.45;6.38;;;26.50;84.20;;;;;;5084784;28;20042;-48
2023/02/13 11:38:16;;;;;;;15.13;9.45;;;26.50;84.00;;;;;;5084598;28;20008;-47
2023/02/13 11:40:47;;;;;;;15.50;8.93;;;26.60;84.10;;;;;;5084842;28;20035;-48
2023/02/13 11:43:28;;;;;;;14.98;8.88;;;26.60;84.10;;;;;;5084794;28;20019;-53
2023/02/13 11:46:07;;;;;;;15.63;7.35;;;26.60;84.20;;;;;;5084388;28;20026;-56
2023/02/13 11:48:35;;;;;;;12.77;6.55;;;26.60;84.20;;;;;;5084753;28;20035;-52
2023/02/13 11:51:02;;;;;;;8.18;5.53;;;26.60;84.40;;;;;;5084587;28;20040;-48
2023/02/13 11:53:38;;;;;;;11.90;6.25;;;26.60;84.30;;;;;;5083926;28;20027;-49
2023/02/13 11:56:12;;;;;;;12.57;5.97;;;26.60;84.30;;;;;;5084405;28;20024;-49
2023/02/13 11:58:40;;;;;;;10.18;5.35;;;26.60;84.20;;;;;;5084692;28;20016;-48
2023/02/13 12:01:24;;;;;;;7.97;5.72;;;26.60;84.40;;;;;;5084325;28;20025;-56
2023/02/13 12:04:03;;;;;;;12.05;5.65;;;26.60;84.60;;;;;;5084744;28;20025;-48
2023/02/13 12:06:33;;;;;;;14.48;5.97;;;26.60;84.50;;;;;;5084443;28;20047;-52
2023/02/13 12:09:00;;;;;;;12.70;6.68;;;26.60;84.60;;;;;;5084462;28;20024;-52
2023/02/13 12:11:38;;;;;;;13.70;7.05;;;26.60;84.60;;;;;;5084329;28;20055;-52
2023/02/13 12:14:08;;;;;;;14.30;7.10;;;26.60;84.80;;;;;;5084691;28;20036;-54
2023/02/13 12:16:41;;;;;;;13.70;7.50;;;26.60;84.80;;;;;;5084447;28;20024;-52
2023/02/13 12:19:49;;;;;;;16.30;7.00;;;26.60;84.80;;;;;;5084144;28;20070;-59
2023/02/13 12:22:37;;;;;;;13.48;6.88;;;26.60;85.20;;;;;;5070662;28;20032;-50
2023/02/13 12:25:36;;;;;;;20.45;7.00;;;26.60;85.20;;;;;;5084657;28;20024;-47
2023/02/13 12:28:10;;;;;;;11.70;6.40;;;26.60;85.30;;;;;;5084007;28;20029;-47
2023/02/13 12:31:14;;;;;;;19.15;7.57;;;26.60;85.70;;;;;;5084097;28;20228;-46
2023/02/13 12:34:20;;;;;;;16.08;7.95;;;26.60;85.90;;;;;;5084263;28;20036;-49
2023/02/13 12:37:10;;;;;;;13.90;8.00;;;26.60;85.80;;;;;;5084498;28;20039;-49
2023/02/13 12:39:44;;;;;;;11.25;7.53;;;26.60;85.80;;;;;;5084884;28;20313;-47
2023/02/13 12:42:20;;;;;;;16.33;7.70;;;26.60;85.90;;;;;;5083931;28;20082;-51
2023/02/13 12:44:54;;;;;;;14.73;7.03;;;26.60;86.20;;;;;;5084490;28;20313;-48
2023/02/13 12:47:27;;;;;;;14.57;7.40;;;26.60;86.00;;;;;;5083955;28;20064;-48
2023/02/13 12:50:13;;;;;;;14.18;6.63;;;26.60;86.10;;;;;;5084298;28;20033;-50
2023/02/13 12:52:56;;;;;;;13.45;6.68;;;26.60;86.50;;;;;;5084148;28;20063;-50
2023/02/13 12:55:38;;;;;;;15.82;5.95;;;26.60;86.40;;;;;;5084320;28;20036;-47
2023/02/13 12:58:41;;;;;;;11.88;6.22;;;26.60;86.40;;;;;;5083718;28;20036;-52
2023/02/13 13:01:21;;;;;;;10.75;6.18;;;26.60;86.50;;;;;;5083807;28;20040;-46
2023/02/13 13:03:51;;;;;;;10.60;5.88;;;26.60;86.60;;;;;;5083860;28;20028;-45
2023/02/13 13:06:25;;;;;;;11.07;6.28;;;26.50;87.00;;;;;;5084146;28;20078;-51
2023/02/13 13:08:57;;;;;;;11.57;6.00;;;26.50;87.70;;;;;;5084279;28;20046;-47
2023/02/13 13:11:30;;;;;;;12.55;5.97;;;26.50;88.20;;;;;;5084195;28;20355;-46
2023/02/13 13:14:22;;;;;;;12.57;6.25;;;26.50;88.60;;;;;;5083900;28;20085;-52
2023/02/13 13:17:07;;;;;;;11.30;6.13;;;26.50;89.00;;;;;;5075358;28;20339;-54
2023/02/13 13:19:52;;;;;;;14.32;6.60;;;26.50;89.20;;;;;;5084131;28;20055;-56
2023/02/13 13:22:44;;;;;;;36.65;10.10;;;26.50;89.20;;;;;;5083595;28;20098;-43
2023/02/13 13:25:47;;;;;;;36.88;10.93;;;26.40;89.50;;;;;;5084562;28;20036;-49
2023/02/13 13:28:43;;;;;;;36.13;10.60;;;26.40;89.50;;;;;;5083977;28;20025;-53
2023/02/13 13:31:12;;;;;;;31.48;9.75;;;26.40;89.50;;;;;;5084103;28;20024;-48
2023/02/13 13:33:45;;;;;;;15.70;7.85;;;26.50;89.50;;;;;;5085023;28;20040;-48
2023/02/13 13:36:35;;;;;;;19.42;7.82;;;26.50;89.30;;;;;;5087653;28;20028;-44
2023/02/13 13:39:11;;;;;;;11.25;6.63;;;26.50;89.00;;;;;;5087688;28;20141;-48
2023/02/13 13:42:15;;;;;;;9.30;5.95;;;26.50;89.00;;;;;;5087155;28;20029;-49
2023/02/13 13:45:09;;;;;;;17.05;6.43;;;26.50;88.50;;;;;;5087985;28;20222;-43
2023/02/13 13:47:35;;;;;;;11.90;5.30;;;26.50;88.60;;;;;;5087216;28;20049;-47
2023/02/13 13:50:05;;;;;;;9.73;5.15;;;26.50;88.80;;;;;;5087982;28;20043;-47
2023/02/13 13:52:34;;;;;;;9.27;4.90;;;26.60;88.60;;;;;;5087227;28;20024;-48
2023/02/13 13:55:03;;;;;;;10.02;4.82;;;26.60;88.70;;;;;;5087878;28;20035;-44
2023/02/13 13:57:41;;;;;;;6.28;4.65;;;26.60;88.80;;;;;;5087192;28;20062;-45